Time;durP1;ratioP1;P1;durP2;ratioP2;P2;SDS_P1;SDS_P2;PMS_P1;PMS_P2;Temp;Humidity;BMP_temperature;BMP_pressure;BME280_temperature;BME280_humidity;BME280_pressure;Samples;Min_cycle;Max_cycle;Signal;HPM_P1;HPM_P2
2022/03/09 00:00:38;;;;;;;2.98;2.50;;;;;;;4.91;56.61;101559.03;1789171;79;21016;-75
2022/03/09 00:03:05;;;;;;;2.50;2.30;;;;;;;4.89;56.71;101561.59;1780196;78;21133;-75
2022/03/09 00:05:34;;;;;;;3.08;2.77;;;;;;;4.85;56.77;101555.95;1767058;79;21074;-75
2022/03/09 00:08:02;;;;;;;2.50;2.30;;;;;;;4.84;57.03;101552.91;1785827;79;21010;-75
2022/03/09 00:10:29;;;;;;;4.30;2.92;;;;;;;4.84;57.01;101551.63;1778034;79;21129;-74
2022/03/09 00:12:57;;;;;;;3.92;3.55;;;;;;;4.83;56.98;101550.32;1780498;79;21045;-75
2022/03/09 00:15:24;;;;;;;3.22;2.92;;;;;;;4.80;57.05;101545.14;1763372;80;21018;-74
2022/03/09 00:17:51;;;;;;;3.65;3.27;;;;;;;4.78;57.25;101551.53;1747817;80;21057;-75
2022/03/09 00:20:18;;;;;;;3.22;2.92;;;;;;;4.78;57.29;101546.38;1770612;80;20986;-75
2022/03/09 00:22:47;;;;;;;3.27;3.00;;;;;;;4.80;57.40;101546.42;1771328;80;20972;-75
2022/03/09 00:25:14;;;;;;;3.60;2.90;;;;;;;4.80;57.44;101545.14;1772638;80;21575;-74
2022/03/09 00:27:41;;;;;;;3.30;2.80;;;;;;;4.79;57.46;101546.84;1780317;79;21003;-76
2022/03/09 00:30:10;;;;;;;3.15;2.85;;;;;;;4.80;57.62;101544.69;1702451;82;21037;-74
2022/03/09 00:32:40;;;;;;;3.00;2.70;;;;;;;4.79;57.63;101549.42;1723073;82;21032;-75
2022/03/09 00:35:10;;;;;;;3.30;3.00;;;;;;;4.80;57.59;101550.30;1728098;82;21019;-75
2022/03/09 00:37:37;;;;;;;3.50;3.20;;;;;;;4.77;57.72;101545.08;1720435;82;21580;-74
2022/03/09 00:40:06;;;;;;;4.20;3.00;;;;;;;4.75;57.67;101550.22;1767011;79;21581;-75
2022/03/09 00:42:38;;;;;;;2.70;2.50;;;;;;;4.73;57.91;101545.47;1784235;79;20951;-75
2022/03/09 00:45:07;;;;;;;3.12;2.83;;;;;;;4.77;58.09;101540.80;1779456;79;21170;-75
2022/03/09 00:47:34;;;;;;;2.45;2.25;;;;;;;4.78;58.05;101539.94;1783261;79;21029;-76
2022/03/09 00:50:01;;;;;;;2.47;2.00;;;;;;;4.79;58.06;101544.67;1778404;79;21069;-76
2022/03/09 00:52:28;;;;;;;3.65;2.30;;;;;;;4.80;58.19;101538.24;1770798;79;21073;-75
2022/03/09 00:54:56;;;;;;;2.58;2.10;;;;;;;4.79;58.10;101540.39;1776309;79;21013;-75
2022/03/09 00:57:23;;;;;;;2.40;2.20;;;;;;;4.75;58.49;101539.91;1790662;79;21021;-76
2022/03/09 00:59:50;;;;;;;3.17;2.45;;;;;;;4.70;58.71;101540.66;1773792;79;21027;-75
2022/03/09 01:02:17;;;;;;;3.10;2.80;;;;;;;4.65;58.79;101540.62;1765666;80;21487;-75
2022/03/09 01:04:44;;;;;;;2.77;2.55;;;;;;;4.55;59.08;101538.76;1770285;80;21055;-75
2022/03/09 01:07:11;;;;;;;2.98;2.77;;;;;;;4.50;59.47;101534.36;1770590;80;21078;-75
2022/03/09 01:09:38;;;;;;;2.70;2.50;;;;;;;4.48;59.75;101536.92;1767125;80;21024;-75
2022/03/09 01:12:07;;;;;;;4.10;2.85;;;;;;;4.45;59.79;101534.28;1773863;80;21078;-75
2022/03/09 01:14:35;;;;;;;3.00;2.70;;;;;;;4.44;59.90;101541.58;1767706;80;21538;-74
2022/03/09 01:17:02;;;;;;;3.02;2.72;;;;;;;4.43;60.14;101541.13;1782556;80;20966;-75
2022/03/09 01:19:29;;;;;;;2.87;2.58;;;;;;;4.45;60.05;101540.72;1794655;78;20995;-73
2022/03/09 01:21:57;;;;;;;2.60;2.40;;;;;;;4.44;60.16;101544.57;1785299;78;21044;-74
2022/03/09 01:24:24;;;;;;;2.87;2.55;;;;;;;4.42;60.19;101535.53;1777854;79;21000;-73
2022/03/09 01:26:51;;;;;;;2.70;2.47;;;;;;;4.45;60.46;101541.17;1766127;80;21503;-73
2022/03/09 01:29:18;;;;;;;3.42;3.12;;;;;;;4.50;60.40;101538.22;1710770;83;21050;-74
2022/03/09 01:31:46;;;;;;;3.72;2.90;;;;;;;4.51;60.03;101536.11;1717712;82;21046;-74
2022/03/09 01:34:13;;;;;;;3.00;2.58;;;;;;;4.49;59.82;101538.63;1734799;82;21070;-74
2022/03/09 01:36:40;;;;;;;2.87;2.62;;;;;;;4.46;59.97;101533.86;1719672;82;21054;-74
2022/03/09 01:39:07;;;;;;;3.08;2.80;;;;;;;4.46;60.10;101530.88;1771681;80;21024;-74
2022/03/09 01:41:35;;;;;;;4.62;3.40;;;;;;;4.47;60.05;101532.59;1774304;79;21018;-74
2022/03/09 01:44:18;;;;;;;4.15;3.40;;;;;;;4.45;59.86;101531.70;1786012;79;21021;-74
2022/03/09 01:46:48;;;;;;;3.83;3.08;;;;;;;4.42;60.00;101532.96;1780591;79;21003;-73
2022/03/09 01:49:17;;;;;;;3.17;2.85;;;;;;;4.41;59.96;101526.50;1732533;82;21004;-74
2022/03/09 01:51:46;;;;;;;2.67;2.47;;;;;;;4.42;60.08;101529.51;1731316;81;21638;-74
2022/03/09 01:54:14;;;;;;;3.90;2.80;;;;;;;4.42;60.04;101530.38;1732739;82;21046;-74
2022/03/09 01:56:41;;;;;;;4.92;2.80;;;;;;;4.44;59.87;101523.95;1744288;81;21580;-74
2022/03/09 01:59:12;;;;;;;3.75;3.33;;;;;;;4.45;59.81;101533.44;1735257;82;21058;-74
2022/03/09 02:01:40;;;;;;;3.55;3.25;;;;;;;4.45;59.82;101529.13;1732564;82;21612;-75
2022/03/09 02:04:08;;;;;;;4.17;3.30;;;;;;;4.43;59.43;101531.26;1731260;81;21054;-74
2022/03/09 02:06:38;;;;;;;3.87;3.27;;;;;;;4.38;59.43;101529.89;1742773;81;21039;-75
2022/03/09 02:11:46;;;;;;;3.30;3.00;;;;;;;4.33;59.58;101526.36;1612853;88;21641;-74
2022/03/09 02:14:30;;;;;;;3.30;3.00;;;;;;;4.32;59.42;101527.22;1608226;88;21118;-74
2022/03/09 02:17:00;;;;;;;4.10;2.90;;;;;;;4.29;59.41;101529.73;1613343;88;21082;-75
2022/03/09 02:19:28;;;;;;;3.37;3.05;;;;;;;4.29;59.42;101524.99;1599378;88;21125;-74
2022/03/09 02:22:32;;;;;;;3.80;3.12;;;;;;;4.28;59.41;101525.44;1603444;88;21576;-74
2022/03/09 02:25:02;;;;;;;3.72;3.10;;;;;;;4.29;59.27;101527.16;1627059;87;21078;-74
2022/03/09 02:27:29;;;;;;;3.60;3.30;;;;;;;4.27;59.39;101521.11;1623942;87;21058;-75
2022/03/09 02:29:56;;;;;;;3.85;3.35;;;;;;;4.29;59.33;101524.58;1625209;88;21006;-75
2022/03/09 02:32:23;;;;;;;3.90;3.60;;;;;;;4.31;59.24;101524.63;1627136;88;21522;-74
2022/03/09 02:34:51;;;;;;;3.62;3.33;;;;;;;4.29;59.02;101525.88;1626268;87;21042;-75
2022/03/09 02:37:18;;;;;;;3.45;3.15;;;;;;;4.28;59.08;101528.02;1620139;87;20995;-75
2022/03/09 02:39:45;;;;;;;3.90;3.40;;;;;;;4.29;59.13;101527.16;1624396;88;21050;-76
2022/03/09 02:42:13;;;;;;;5.15;3.60;;;;;;;4.32;59.15;101522.07;1625207;88;21579;-76
2022/03/09 02:44:41;;;;;;;4.55;4.05;;;;;;;4.33;58.95;101531.52;1625032;87;21023;-76
2022/03/09 02:47:08;;;;;;;4.12;3.72;;;;;;;4.36;58.96;101529.00;1658516;85;21133;-76
2022/03/09 02:49:35;;;;;;;4.35;3.62;;;;;;;4.38;58.96;101532.88;1753135;79;20987;-76
2022/03/09 02:52:04;;;;;;;3.58;3.27;;;;;;;4.38;58.87;101529.89;1766423;79;21005;-76
2022/03/09 02:54:32;;;;;;;3.98;3.45;;;;;;;4.38;58.81;101528.61;1776345;79;21009;-76
2022/03/09 02:56:59;;;;;;;3.40;3.10;;;;;;;4.37;58.93;101533.30;1784798;79;21525;-76
2022/03/09 02:59:27;;;;;;;3.92;3.60;;;;;;;4.35;58.81;101537.56;1788301;79;21003;-76
2022/03/09 03:01:54;;;;;;;3.45;3.10;;;;;;;4.33;58.91;101531.96;1778793;79;21030;-76
2022/03/09 03:04:21;;;;;;;3.50;3.20;;;;;;;4.30;58.99;101533.19;1762281;80;21037;-76
2022/03/09 03:06:50;;;;;;;3.25;2.95;;;;;;;4.30;58.81;101534.06;1780562;79;21604;-76
2022/03/09 03:09:19;;;;;;;5.78;3.30;;;;;;;4.27;58.85;101535.28;1783960;80;21040;-75
2022/03/09 03:11:46;;;;;;;3.00;2.75;;;;;;;4.27;58.89;101531.42;1771747;80;21547;-76
2022/03/09 03:14:15;;;;;;;3.05;2.80;;;;;;;4.28;58.82;101530.59;1771403;80;21047;-76
2022/03/09 03:16:42;;;;;;;3.55;3.25;;;;;;;4.31;58.81;101538.36;1755466;81;21120;-76
2022/03/09 03:19:09;;;;;;;3.50;3.10;;;;;;;4.32;58.61;101542.68;1770144;79;21059;-75
2022/03/09 03:21:37;;;;;;;3.22;2.67;;;;;;;4.31;58.50;101540.09;1770726;79;21550;-76
2022/03/09 03:24:06;;;;;;;2.80;2.55;;;;;;;4.31;58.48;101531.91;1775253;79;21010;-75
2022/03/09 03:26:34;;;;;;;3.40;3.10;;;;;;;4.32;58.58;101537.53;1772702;80;21066;-75
2022/03/09 03:29:01;;;;;;;3.15;2.87;;;;;;;4.35;58.54;101534.98;1779054;80;21027;-76
2022/03/09 03:33:58;;;;;;;3.05;2.80;;;;;;;4.36;58.30;101537.14;1740797;81;21021;-76
2022/03/09 03:36:25;;;;;;;2.60;2.40;;;;;;;4.36;58.33;101530.29;1735262;81;21092;-75
2022/03/09 03:38:53;;;;;;;3.22;2.65;;;;;;;4.38;58.43;101532.47;1736390;81;21037;-76
2022/03/09 03:41:20;;;;;;;3.85;2.87;;;;;;;4.41;58.30;101531.21;1736790;81;21022;-76
2022/03/09 03:43:47;;;;;;;2.75;2.40;;;;;;;4.40;58.23;101529.49;1740097;81;21023;-76
2022/03/09 03:46:14;;;;;;;3.25;2.85;;;;;;;4.42;58.19;101530.38;1742503;81;21490;-76
2022/03/09 03:48:41;;;;;;;3.52;3.02;;;;;;;4.41;58.18;101531.21;1739115;81;21526;-77
2022/03/09 03:51:10;;;;;;;3.55;3.10;;;;;;;4.40;58.05;101529.49;1737986;81;21045;-76
2022/03/09 03:53:38;;;;;;;2.70;2.50;;;;;;;4.39;58.17;101535.48;1728995;82;21609;-75
2022/03/09 03:56:05;;;;;;;3.40;3.10;;;;;;;4.36;58.25;101531.58;1735647;81;21014;-76
2022/03/09 03:58:33;;;;;;;2.92;2.72;;;;;;;4.33;58.33;101530.23;1737729;81;21065;-76
2022/03/09 04:01:00;;;;;;;2.87;2.67;;;;;;;4.30;58.42;101531.48;1740650;81;21070;-76
2022/03/09 04:03:27;;;;;;;3.02;2.60;;;;;;;4.29;58.38;101529.73;1741726;81;21128;-76
2022/03/09 04:05:55;;;;;;;3.37;3.08;;;;;;;4.27;58.43;101527.56;1742350;81;21578;-76
2022/03/09 04:08:22;;;;;;;3.87;3.45;;;;;;;4.26;58.42;101529.70;1741392;81;21066;-76
2022/03/09 04:10:51;;;;;;;3.60;3.30;;;;;;;4.24;58.26;101527.94;1720404;82;21050;-76
2022/03/09 04:13:17;;;;;;;3.22;2.95;;;;;;;4.18;58.10;101527.43;1730864;82;21553;-75
2022/03/09 04:15:44;;;;;;;3.35;3.05;;;;;;;4.15;58.44;101526.08;1732436;81;21022;-75
2022/03/09 04:18:12;;;;;;;3.10;2.80;;;;;;;4.17;58.51;101523.10;1720420;81;21185;-75
2022/03/09 04:20:39;;;;;;;3.20;2.87;;;;;;;4.17;58.63;101526.97;1728308;82;21105;-75
2022/03/09 04:23:08;;;;;;;4.47;3.15;;;;;;;4.17;58.42;101533.81;1725278;82;21030;-75
2022/03/09 04:25:40;;;;;;;2.85;2.65;;;;;;;4.15;58.41;101536.38;1737860;81;21469;-76
2022/03/09 04:28:07;;;;;;;3.58;3.22;;;;;;;4.14;58.43;101539.81;1746947;81;21033;-76
2022/03/09 04:30:34;;;;;;;4.00;3.58;;;;;;;4.13;58.52;101535.48;1765872;78;21002;-76
2022/03/09 04:33:01;;;;;;;4.12;3.72;;;;;;;4.14;58.59;101538.52;1783117;79;20983;-77
2022/03/09 04:35:28;;;;;;;3.47;3.17;;;;;;;4.13;58.69;101538.06;1769734;79;21585;-76
2022/03/09 04:37:55;;;;;;;3.72;3.42;;;;;;;4.13;58.50;101535.48;1709836;83;21052;-76
2022/03/09 04:40:22;;;;;;;3.87;3.50;;;;;;;4.13;58.65;101538.06;1709094;83;21009;-75
2022/03/09 04:42:51;;;;;;;4.05;3.75;;;;;;;4.14;58.64;101545.80;1760579;80;21053;-76
2022/03/09 04:45:18;;;;;;;4.60;4.00;;;;;;;4.12;58.31;101550.51;1770712;79;21004;-76
2022/03/09 04:47:46;;;;;;;3.67;3.37;;;;;;;4.09;58.36;101550.44;1768786;79;21518;-76
2022/03/09 04:50:13;;;;;;;3.60;3.30;;;;;;;4.07;58.35;101550.42;1762744;80;21070;-76
2022/03/09 04:52:40;;;;;;;3.85;3.50;;;;;;;4.02;58.05;101552.45;1778061;79;21503;-76
2022/03/09 04:55:08;;;;;;;4.05;3.40;;;;;;;3.97;57.96;101554.09;1781596;79;20991;-76
2022/03/09 04:57:37;;;;;;;4.55;3.90;;;;;;;3.95;58.08;101563.50;1726339;82;21198;-75
2022/03/09 05:00:06;;;;;;;3.17;2.98;;;;;;;3.92;58.11;101563.44;1728074;82;21055;-76
2022/03/09 05:02:34;;;;;;;4.80;3.80;;;;;;;3.91;58.25;101567.73;1731920;81;21030;-76
2022/03/09 05:05:02;;;;;;;4.12;3.70;;;;;;;3.92;58.20;101568.58;1744909;81;21041;-75
2022/03/09 05:07:29;;;;;;;4.17;3.80;;;;;;;3.93;58.05;101564.77;1711144;81;21090;-76
2022/03/09 05:09:56;;;;;;;3.98;3.67;;;;;;;3.95;58.08;101573.80;1794771;79;21002;-76
2022/03/09 05:12:25;;;;;;;4.17;3.80;;;;;;;4.01;57.99;101576.48;1770535;79;21556;-75
2022/03/09 05:14:53;;;;;;;4.40;4.00;;;;;;;4.04;57.87;101573.95;1768510;80;21018;-75
2022/03/09 05:17:21;;;;;;;3.98;3.67;;;;;;;4.07;57.55;101572.31;1758650;80;21073;-76
2022/03/09 05:19:47;;;;;;;5.60;4.08;;;;;;;4.09;57.62;101583.52;1765176;79;21026;-76
2022/03/09 05:22:15;;;;;;;4.37;3.80;;;;;;;4.10;57.82;101585.67;1778849;79;21026;-75
2022/03/09 05:24:42;;;;;;;4.53;4.12;;;;;;;4.14;57.85;101590.03;1772850;79;21003;-76
2022/03/09 05:27:10;;;;;;;4.55;4.15;;;;;;;4.14;57.96;101596.48;1759897;80;21076;-76
2022/03/09 05:29:38;;;;;;;5.00;4.50;;;;;;;4.12;57.83;101596.42;1766898;79;21006;-75
2022/03/09 05:32:06;;;;;;;4.85;4.28;;;;;;;4.10;58.04;101599.84;1769487;80;21074;-75
2022/03/09 05:34:34;;;;;;;5.42;4.15;;;;;;;4.09;58.31;101600.66;1780981;79;20979;-76
2022/03/09 05:37:01;;;;;;;4.20;3.90;;;;;;;4.10;58.45;101601.97;1767445;80;21057;-76
2022/03/09 05:39:29;;;;;;;4.65;3.70;;;;;;;4.08;58.17;101606.67;1759254;80;21054;-76
2022/03/09 05:41:56;;;;;;;4.33;3.90;;;;;;;4.04;58.11;101597.13;1789053;79;21063;-76
2022/03/09 05:44:23;;;;;;;3.98;3.67;;;;;;;4.01;58.11;101602.23;1780253;80;21546;-76
2022/03/09 05:46:50;;;;;;;4.75;4.35;;;;;;;4.03;58.09;101600.55;1750787;79;21510;-77
2022/03/09 05:49:17;;;;;;;4.55;4.15;;;;;;;4.01;58.20;101604.81;1798723;79;21072;-77
2022/03/09 05:51:44;;;;;;;4.60;3.80;;;;;;;4.04;58.67;101603.56;1775476;79;21041;-77
2022/03/09 05:54:11;;;;;;;4.60;3.55;;;;;;;4.08;58.53;101612.66;1782906;79;21066;-76
2022/03/09 05:56:40;;;;;;;4.08;3.67;;;;;;;4.11;58.48;101613.14;1773587;80;20971;-76
2022/03/09 05:59:07;;;;;;;5.08;3.90;;;;;;;4.14;58.49;101614.50;1762816;80;21541;-77
2022/03/09 06:01:35;;;;;;;4.40;4.00;;;;;;;4.16;58.09;101610.25;1711962;83;21078;-77
2022/03/09 06:04:02;;;;;;;4.80;4.40;;;;;;;4.15;57.93;101613.64;1712875;82;21025;-77
2022/03/09 06:06:29;;;;;;;4.22;3.77;;;;;;;4.16;58.18;101612.83;1723428;82;21050;-77
2022/03/09 06:08:56;;;;;;;5.03;4.25;;;;;;;4.19;58.24;101620.59;1710499;81;21594;-76
2022/03/09 06:11:23;;;;;;;4.70;4.17;;;;;;;4.24;58.49;101613.83;1778984;79;21015;-76
2022/03/09 06:13:50;;;;;;;4.67;3.85;;;;;;;4.33;58.34;101616.98;1770461;79;21025;-77
2022/03/09 06:16:17;;;;;;;5.20;4.33;;;;;;;4.41;58.34;101618.82;1775054;80;21011;-76
2022/03/09 06:18:47;;;;;;;6.17;5.08;;;;;;;4.51;58.10;101624.61;1773021;79;20973;-76
2022/03/09 06:21:14;;;;;;;6.00;5.17;;;;;;;4.58;58.12;101630.28;1787503;79;21057;-77
2022/03/09 06:23:41;;;;;;;5.78;5.08;;;;;;;4.65;57.83;101629.56;1771167;78;21104;-76
2022/03/09 06:26:08;;;;;;;5.97;4.72;;;;;;;4.66;57.52;101635.14;1760563;80;21025;-77
2022/03/09 06:28:35;;;;;;;4.80;4.12;;;;;;;4.64;57.25;101630.80;1770549;79;21006;-77
2022/03/09 06:31:02;;;;;;;4.83;3.47;;;;;;;4.59;57.09;101632.45;1784397;79;20980;-77
2022/03/09 06:33:29;;;;;;;4.55;4.15;;;;;;;4.55;57.02;101641.85;1772319;79;21030;-77
2022/03/09 06:35:56;;;;;;;4.22;3.83;;;;;;;4.50;57.13;101635.73;1798042;79;20997;-77
2022/03/09 06:38:23;;;;;;;5.33;4.15;;;;;;;4.47;57.13;101638.25;1778641;79;21069;-77
2022/03/09 06:40:50;;;;;;;4.12;3.72;;;;;;;4.48;57.17;101648.14;1784141;79;21062;-77
2022/03/09 06:43:18;;;;;;;5.35;4.35;;;;;;;4.51;57.38;101639.19;1786318;79;21066;-77
2022/03/09 06:45:45;;;;;;;6.20;4.72;;;;;;;4.56;57.31;101637.54;1776087;79;20998;-77
2022/03/09 06:48:12;;;;;;;5.85;4.67;;;;;;;4.64;57.40;101638.53;1776105;79;21057;-77
2022/03/09 06:50:39;;;;;;;5.90;4.95;;;;;;;4.73;57.38;101646.42;1780709;79;21091;-77
2022/03/09 06:53:06;;;;;;;5.20;4.15;;;;;;;4.80;57.09;101649.11;1787781;79;20998;-77
2022/03/09 06:55:34;;;;;;;4.37;3.65;;;;;;;4.82;56.54;101648.72;1773937;79;20997;-76
2022/03/09 06:58:01;;;;;;;4.42;3.83;;;;;;;4.81;56.42;101644.83;1770102;79;21461;-77
2022/03/09 07:00:28;;;;;;;4.20;3.80;;;;;;;4.82;56.63;101652.58;1786058;79;21101;-77
2022/03/09 07:02:56;;;;;;;4.65;3.52;;;;;;;4.86;56.77;101655.66;1788486;79;21045;-77
2022/03/09 07:05:23;;;;;;;3.75;3.40;;;;;;;4.89;56.55;101653.55;1775934;79;21013;-77
2022/03/09 07:07:51;;;;;;;3.55;3.17;;;;;;;4.92;56.41;101656.20;1780845;79;20991;-77
2022/03/09 07:10:20;;;;;;;3.67;3.33;;;;;;;4.91;56.10;101662.17;1726954;82;21109;-78
2022/03/09 07:12:47;;;;;;;3.40;3.05;;;;;;;4.88;56.32;101656.55;1737340;81;21117;-76
2022/03/09 07:15:15;;;;;;;4.35;3.17;;;;;;;4.90;56.45;101660.02;1752892;80;21461;-77
2022/03/09 07:17:43;;;;;;;3.60;2.90;;;;;;;4.91;56.13;101667.34;1735056;82;21079;-77
2022/03/09 07:20:11;;;;;;;3.80;3.20;;;;;;;4.92;56.10;101660.91;1726139;82;21499;-77
2022/03/09 07:22:41;;;;;;;3.42;2.98;;;;;;;4.93;56.36;101666.52;1801290;78;21011;-77
2022/03/09 07:25:09;;;;;;;3.67;3.20;;;;;;;4.97;56.32;101669.17;1774527;79;21495;-77
2022/03/09 07:27:36;;;;;;;4.75;2.90;;;;;;;4.98;55.76;101666.60;1784101;79;21491;-76
2022/03/09 07:30:04;;;;;;;3.45;3.00;;;;;;;4.95;55.94;101671.70;1761902;80;21505;-77
2022/03/09 07:32:33;;;;;;;3.35;3.05;;;;;;;4.93;55.77;101675.55;1776755;79;21040;-77
2022/03/09 07:35:00;;;;;;;3.55;2.92;;;;;;;4.92;55.90;101675.09;1789484;79;21005;-78
2022/03/09 07:37:27;;;;;;;3.17;2.90;;;;;;;4.91;55.89;101674.66;1790234;79;21039;-77
2022/03/09 07:39:55;;;;;;;6.97;4.90;;;;;;;4.90;56.03;101675.94;1773535;79;21078;-77
2022/03/09 07:42:22;;;;;;;6.60;4.75;;;;;;;4.90;56.22;101681.94;1755137;80;21604;-77
2022/03/09 07:44:49;;;;;;;6.35;4.72;;;;;;;4.90;56.37;101681.94;1765051;80;21029;-77
2022/03/09 07:47:16;;;;;;;6.55;5.22;;;;;;;4.90;56.78;101671.62;1773709;80;21015;-76
2022/03/09 07:49:44;;;;;;;8.10;5.87;;;;;;;4.93;56.89;101671.69;1769086;80;20990;-77
2022/03/09 07:52:10;;;;;;;5.45;3.85;;;;;;;4.98;56.38;101668.30;1773689;80;20982;-77
2022/03/09 07:54:37;;;;;;;4.08;3.15;;;;;;;5.01;56.39;101673.53;1774233;80;21479;-77
2022/03/09 07:57:04;;;;;;;3.40;3.10;;;;;;;5.04;56.44;101670.98;1772295;79;21024;-77
2022/03/09 07:59:32;;;;;;;3.80;3.02;;;;;;;5.04;55.98;101672.27;1785606;79;21065;-78
2022/03/09 08:02:00;;;;;;;6.00;3.92;;;;;;;5.06;55.97;101668.00;1775763;79;20987;-78
2022/03/09 08:04:27;;;;;;;3.67;3.37;;;;;;;5.08;56.18;101668.89;1790187;79;21038;-78
2022/03/09 08:06:54;;;;;;;4.65;3.58;;;;;;;5.11;56.06;101668.95;1796473;79;21026;-77
2022/03/09 08:09:21;;;;;;;3.50;2.95;;;;;;;5.15;56.23;101674.59;1773225;80;21025;-78
2022/03/09 08:11:48;;;;;;;4.10;3.65;;;;;;;5.18;56.13;101675.91;1779525;79;21047;-78
2022/03/09 08:14:15;;;;;;;4.70;4.00;;;;;;;5.20;55.81;101669.06;1795583;79;21562;-78
2022/03/09 08:16:45;;;;;;;3.90;3.50;;;;;;;5.20;55.80;101674.22;1772145;79;21159;-77
2022/03/09 08:19:12;;;;;;;4.75;3.40;;;;;;;5.17;55.95;101672.91;1774075;79;21073;-77
2022/03/09 08:21:39;;;;;;;4.35;3.80;;;;;;;5.15;56.20;101675.89;1802530;79;21026;-78
2022/03/09 08:24:06;;;;;;;4.60;4.12;;;;;;;5.12;55.78;101674.53;1775261;79;21001;-78
2022/03/09 08:26:33;;;;;;;2.95;2.62;;;;;;;5.09;55.88;101670.64;1786068;79;20966;-78
2022/03/09 08:29:00;;;;;;;2.85;2.65;;;;;;;5.09;55.86;101673.22;1781825;78;21056;-78
2022/03/09 08:31:28;;;;;;;5.15;3.27;;;;;;;5.08;55.74;101676.21;1773926;79;21101;-77
2022/03/09 08:33:55;;;;;;;4.17;3.45;;;;;;;5.10;55.84;101675.81;1778808;79;20973;-77
2022/03/09 08:36:22;;;;;;;4.58;3.65;;;;;;;5.15;56.00;101674.59;1783745;79;21009;-77
2022/03/09 08:38:50;;;;;;;4.20;3.80;;;;;;;5.18;56.45;101678.49;1777620;79;21049;-78
2022/03/09 08:41:17;;;;;;;6.15;5.03;;;;;;;5.26;56.68;101670.44;1768986;79;21009;-77
2022/03/09 08:43:44;;;;;;;5.83;4.62;;;;;;;5.33;56.78;101669.69;1779005;80;21065;-78
2022/03/09 08:46:12;;;;;;;4.62;4.12;;;;;;;5.40;56.59;101668.95;1771717;78;21029;-78
2022/03/09 08:48:39;;;;;;;4.12;3.52;;;;;;;5.48;56.80;101666.05;1790971;79;20987;-78
2022/03/09 08:51:07;;;;;;;4.17;3.37;;;;;;;5.57;56.96;101673.89;1769041;80;21030;-78
2022/03/09 08:53:34;;;;;;;4.17;3.50;;;;;;;5.67;56.99;101666.70;1770939;79;21035;-78
2022/03/09 08:56:02;;;;;;;5.37;4.03;;;;;;;5.75;56.76;101668.95;1787234;79;21011;-78
2022/03/09 08:58:29;;;;;;;3.85;3.33;;;;;;;5.80;56.24;101668.59;1775209;80;21033;-78
2022/03/09 09:00:56;;;;;;;7.37;6.67;;;;;;;5.86;56.15;101667.83;1787760;79;21019;-78
2022/03/09 09:03:23;;;;;;;4.10;3.70;;;;;;;5.87;55.96;101676.91;1764387;79;21179;-79
2022/03/09 09:05:52;;;;;;;3.55;3.10;;;;;;;5.88;55.51;101681.63;1769759;79;21063;-79
2022/03/09 09:08:20;;;;;;;3.65;3.35;;;;;;;5.90;55.34;101678.64;1719879;82;21510;-78
2022/03/09 09:10:46;;;;;;;3.47;3.17;;;;;;;5.94;55.42;101685.16;1782795;79;21037;-78
2022/03/09 09:13:16;;;;;;;4.28;3.37;;;;;;;5.99;55.30;101675.75;1779463;79;20989;-78
2022/03/09 09:15:44;;;;;;;3.47;3.17;;;;;;;6.06;54.83;101685.29;1786093;79;21042;-78
2022/03/09 09:18:13;;;;;;;3.37;3.08;;;;;;;6.09;54.28;101681.88;1781595;79;21050;-78
2022/03/09 09:20:41;;;;;;;3.60;3.30;;;;;;;6.10;54.57;101681.89;1793070;79;21617;-78
2022/03/09 09:23:09;;;;;;;4.87;3.30;;;;;;;6.14;54.21;101681.08;1769769;79;21643;-78
2022/03/09 09:25:36;;;;;;;4.35;3.30;;;;;;;6.15;53.24;101679.36;1784759;79;21018;-79
2022/03/09 09:28:04;;;;;;;3.42;3.12;;;;;;;6.13;53.06;101686.23;1783155;79;21065;-78
2022/03/09 09:30:31;;;;;;;3.27;2.92;;;;;;;6.11;52.62;101683.64;1775772;79;21021;-78
2022/03/09 09:33:00;;;;;;;3.90;2.67;;;;;;;6.10;52.61;101681.89;1772136;79;21038;-78
2022/03/09 09:35:27;;;;;;;3.58;3.00;;;;;;;6.08;51.80;101686.17;1737749;82;21049;-78
2022/03/09 09:37:54;;;;;;;3.40;3.00;;;;;;;6.07;52.05;101689.62;1793066;79;21471;-79
2022/03/09 09:40:21;;;;;;;4.42;2.85;;;;;;;6.07;52.69;101698.67;1792877;79;21002;-79
2022/03/09 09:42:48;;;;;;;4.12;2.70;;;;;;;6.09;53.09;101695.67;1777586;79;21100;-79
2022/03/09 09:45:15;;;;;;;3.83;2.90;;;;;;;6.11;52.79;101706.02;1770998;79;20982;-80
2022/03/09 09:47:43;;;;;;;3.33;3.02;;;;;;;6.12;52.38;101699.57;1774773;79;21404;-79
2022/03/09 09:50:13;;;;;;;3.33;2.98;;;;;;;6.12;52.14;101703.45;1772728;79;21019;-79
2022/03/09 09:52:41;;;;;;;4.12;3.12;;;;;;;6.10;51.77;101697.39;1778035;78;21067;-79
2022/03/09 09:55:09;;;;;;;5.00;3.50;;;;;;;6.09;51.21;101694.39;1773326;80;21074;-79
2022/03/09 09:57:37;;;;;;;4.08;3.47;;;;;;;6.11;51.33;101701.73;1764857;79;20945;-79
2022/03/09 10:00:07;;;;;;;3.00;2.60;;;;;;;6.15;51.06;101700.91;1769513;79;21137;-78
2022/03/09 10:02:37;;;;;;;3.60;2.90;;;;;;;6.21;50.39;101697.52;1775978;79;21074;-80
2022/03/09 10:05:05;;;;;;;4.08;2.92;;;;;;;6.26;50.26;101698.03;1784745;79;21034;-79
2022/03/09 10:07:32;;;;;;;3.30;3.00;;;;;;;6.30;50.25;101694.63;1791225;79;21032;-79
2022/03/09 10:09:59;;;;;;;3.40;3.10;;;;;;;6.33;51.61;101697.23;1767106;80;20983;-78
2022/03/09 10:12:28;;;;;;;3.52;3.08;;;;;;;6.36;51.73;101701.15;1761247;80;21003;-79
2022/03/09 10:14:56;;;;;;;3.17;2.87;;;;;;;6.39;51.34;101701.16;1761738;80;21581;-78
2022/03/09 10:17:26;;;;;;;4.20;3.12;;;;;;;6.41;51.32;101707.22;1754216;81;21845;-78
2022/03/09 10:19:58;;;;;;;3.50;3.20;;;;;;;6.39;51.14;101700.29;1769990;80;21070;-79
2022/03/09 10:22:41;;;;;;;4.30;3.90;;;;;;;6.35;50.93;101707.16;1693530;83;21114;-80
2022/03/09 10:25:16;;;;;;;4.03;3.62;;;;;;;6.26;52.62;101699.33;1665541;84;21067;-78
2022/03/09 10:27:49;;;;;;;4.05;3.70;;;;;;;6.15;54.02;101722.88;1689645;84;21011;-79
2022/03/09 10:30:30;;;;;;;5.10;4.60;;;;;;;6.06;54.57;101726.62;1665002;85;21608;-78
2022/03/09 10:32:59;;;;;;;7.03;5.20;;;;;;;6.04;55.43;101738.66;1628342;86;21049;-78
2022/03/09 10:35:34;;;;;;;5.40;4.90;;;;;;;6.03;55.58;101729.20;1626365;86;21086;-79
2022/03/09 10:38:07;;;;;;;5.50;5.00;;;;;;;6.01;55.47;101738.64;1672429;85;21042;-78
2022/03/09 10:40:44;;;;;;;6.33;5.00;;;;;;;6.01;55.61;101741.23;1568952;90;21065;-79
2022/03/09 10:43:29;;;;;;;5.65;5.15;;;;;;;5.99;55.25;101738.17;1512541;93;21147;-78
2022/03/09 10:46:09;;;;;;;5.05;4.55;;;;;;;5.99;55.52;101739.47;1510768;93;21131;-78
2022/03/09 10:49:02;;;;;;;5.75;4.97;;;;;;;6.00;54.10;101743.35;1510121;94;21095;-79
2022/03/09 10:51:40;;;;;;;5.00;4.50;;;;;;;5.96;53.98;101746.75;1506751;94;21151;-79
2022/03/09 10:54:16;;;;;;;5.62;5.05;;;;;;;5.95;54.14;101743.73;1513221;94;21143;-79
2022/03/09 10:56:44;;;;;;;5.37;4.87;;;;;;;5.97;53.92;101742.04;1510245;94;21083;-78
2022/03/09 10:59:19;;;;;;;5.58;4.97;;;;;;;6.04;53.69;101744.28;1510467;94;21154;-79
2022/03/09 11:02:06;;;;;;;5.12;4.65;;;;;;;6.07;52.86;101740.01;1476002;96;21097;-78
2022/03/09 11:04:36;;;;;;;5.37;4.87;;;;;;;6.11;52.18;101735.73;1441959;99;21636;-79
2022/03/09 11:07:03;;;;;;;4.75;4.35;;;;;;;6.18;52.47;101750.03;1437894;98;21176;-79
2022/03/09 11:09:32;;;;;;;5.37;4.70;;;;;;;6.25;51.37;101731.17;1440126;97;21108;-79
2022/03/09 11:11:59;;;;;;;5.00;4.47;;;;;;;6.33;51.57;101733.41;1452431;96;21076;-78
2022/03/09 11:14:26;;;;;;;5.03;4.53;;;;;;;6.39;51.04;101732.19;1453548;96;21135;-79
2022/03/09 11:19:25;;;;;;;5.95;4.53;;;;;;;6.43;50.87;101731.37;1441581;98;21125;-79
2022/03/09 11:21:53;;;;;;;4.35;3.95;;;;;;;6.44;50.76;101726.66;1449241;98;21183;-79
2022/03/09 11:24:25;;;;;;;;;;;;;;;6.45;50.01;101727.08;1453255;98;21107;-79
2022/03/09 11:26:56;;;;;;;3.75;3.45;;;;;;;6.43;48.74;101723.61;1432943;98;20479;-79
2022/03/09 11:29:34;;;;;;;5.42;4.45;;;;;;;6.43;48.80;101721.02;1436288;98;21193;-78
2022/03/09 11:32:05;;;;;;;4.55;3.85;;;;;;;6.44;48.60;101721.90;1464070;97;21575;-78
2022/03/09 11:34:41;;;;;;;3.90;3.60;;;;;;;6.45;48.70;101729.66;1450260;98;21230;-78
2022/03/09 11:37:36;;;;;;;4.85;4.42;;;;;;;6.47;48.83;101728.41;1404573;100;21645;-78
2022/03/09 11:40:12;;;;;;;6.28;5.33;;;;;;;6.48;48.96;101729.71;1384916;101;21159;-79
2022/03/09 11:42:43;;;;;;;6.95;5.20;;;;;;;6.45;47.96;101729.66;1429286;98;21671;-79
2022/03/09 11:45:22;;;;;;;5.72;4.35;;;;;;;6.40;47.14;101733.06;1457871;98;21068;-80
2022/03/09 11:48:03;;;;;;;4.78;4.28;;;;;;;6.32;46.73;101740.74;1465217;97;21128;-79